sensor_id;sensor_type;location;lat;lon;timestamp;P1;durP1;ratioP1;P2;durP2;ratioP2
1382;SDS011;685;47.196;11.880;2023-02-15T00:01:06;1.40;;;1.10;;
1382;SDS011;685;47.196;11.880;2023-02-15T00:03:33;2.97;;;1.33;;
1382;SDS011;685;47.196;11.880;2023-02-15T00:06:00;1.10;;;1.00;;
1382;SDS011;685;47.196;11.880;2023-02-15T00:08:27;1.60;;;1.00;;
1382;SDS011;685;47.196;11.880;2023-02-15T00:11:02;1.30;;;0.90;;
1382;SDS011;685;47.196;11.880;2023-02-15T00:13:30;1.00;;;0.80;;
1382;SDS011;685;47.196;11.880;2023-02-15T00:15:59;2.00;;;0.83;;
1382;SDS011;685;47.196;11.880;2023-02-15T00:18:28;1.47;;;1.20;;
1382;SDS011;685;47.196;11.880;2023-02-15T00:20:55;2.77;;;1.40;;
1382;SDS011;685;47.196;11.880;2023-02-15T00:23:22;1.97;;;1.30;;
1382;SDS011;685;47.196;11.880;2023-02-15T00:25:49;2.50;;;1.27;;
1382;SDS011;685;47.196;11.880;2023-02-15T00:28:16;2.43;;;1.80;;
1382;SDS011;685;47.196;11.880;2023-02-15T00:30:42;1.80;;;1.40;;
1382;SDS011;685;47.196;11.880;2023-02-15T00:33:09;1.50;;;0.93;;
1382;SDS011;685;47.196;11.880;2023-02-15T00:35:37;2.67;;;1.13;;
1382;SDS011;685;47.196;11.880;2023-02-15T00:38:04;2.17;;;1.13;;
1382;SDS011;685;47.196;11.880;2023-02-15T00:40:31;0.90;;;0.70;;
1382;SDS011;685;47.196;11.880;2023-02-15T00:42:58;1.17;;;0.83;;
1382;SDS011;685;47.196;11.880;2023-02-15T00:45:25;2.13;;;1.13;;
1382;SDS011;685;47.196;11.880;2023-02-15T00:47:52;2.07;;;1.03;;
1382;SDS011;685;47.196;11.880;2023-02-15T00:50:19;1.60;;;1.13;;
1382;SDS011;685;47.196;11.880;2023-02-15T00:52:47;1.77;;;0.90;;
1382;SDS011;685;47.196;11.880;2023-02-15T00:55:14;2.20;;;1.20;;
1382;SDS011;685;47.196;11.880;2023-02-15T00:57:41;1.77;;;1.00;;
1382;SDS011;685;47.196;11.880;2023-02-15T01:00:08;1.70;;;1.00;;
1382;SDS011;685;47.196;11.880;2023-02-15T01:02:36;1.70;;;1.47;;
1382;SDS011;685;47.196;11.880;2023-02-15T01:05:03;1.80;;;1.40;;
1382;SDS011;685;47.196;11.880;2023-02-15T01:07:31;1.50;;;1.10;;
1382;SDS011;685;47.196;11.880;2023-02-15T01:09:59;1.30;;;1.00;;
1382;SDS011;685;47.196;11.880;2023-02-15T01:12:26;1.10;;;0.90;;
1382;SDS011;685;47.196;11.880;2023-02-15T01:14:52;1.30;;;1.10;;
1382;SDS011;685;47.196;11.880;2023-02-15T01:17:19;1.97;;;1.60;;
1382;SDS011;685;47.196;11.880;2023-02-15T01:19:46;1.33;;;1.03;;
1382;SDS011;685;47.196;11.880;2023-02-15T01:22:13;2.00;;;1.80;;
1382;SDS011;685;47.196;11.880;2023-02-15T01:24:40;2.57;;;2.17;;
1382;SDS011;685;47.196;11.880;2023-02-15T01:27:08;2.30;;;1.80;;
1382;SDS011;685;47.196;11.880;2023-02-15T01:29:35;2.10;;;1.70;;
1382;SDS011;685;47.196;11.880;2023-02-15T01:32:02;1.20;;;1.00;;
1382;SDS011;685;47.196;11.880;2023-02-15T01:34:29;1.50;;;1.13;;
1382;SDS011;685;47.196;11.880;2023-02-15T01:36:56;3.03;;;1.17;;
1382;SDS011;685;47.196;11.880;2023-02-15T01:39:23;0.90;;;0.80;;
1382;SDS011;685;47.196;11.880;2023-02-15T01:41:50;1.60;;;0.90;;
1382;SDS011;685;47.196;11.880;2023-02-15T01:47:15;1.20;;;0.80;;
1382;SDS011;685;47.196;11.880;2023-02-15T01:49:45;1.10;;;0.80;;
1382;SDS011;685;47.196;11.880;2023-02-15T01:52:14;1.00;;;0.70;;
1382;SDS011;685;47.196;11.880;2023-02-15T01:54:44;1.20;;;0.80;;
1382;SDS011;685;47.196;11.880;2023-02-15T01:57:13;1.10;;;0.60;;
1382;SDS011;685;47.196;11.880;2023-02-15T01:59:44;1.10;;;0.90;;
1382;SDS011;685;47.196;11.880;2023-02-15T02:02:16;1.07;;;0.90;;
1382;SDS011;685;47.196;11.880;2023-02-15T02:04:47;1.23;;;1.13;;
1382;SDS011;685;47.196;11.880;2023-02-15T02:07:17;1.40;;;0.97;;
1382;SDS011;685;47.196;11.880;2023-02-15T02:09:46;1.57;;;1.00;;
1382;SDS011;685;47.196;11.880;2023-02-15T02:12:14;3.30;;;1.10;;
1382;SDS011;685;47.196;11.880;2023-02-15T02:14:42;1.20;;;0.87;;
1382;SDS011;685;47.196;11.880;2023-02-15T02:17:14;1.23;;;1.13;;
1382;SDS011;685;47.196;11.880;2023-02-15T02:25:52;1.97;;;1.53;;
1382;SDS011;685;47.196;11.880;2023-02-15T02:29:01;5.53;;;2.27;;
1382;SDS011;685;47.196;11.880;2023-02-15T02:32:11;3.73;;;1.90;;
1382;SDS011;685;47.196;11.880;2023-02-15T02:34:50;3.17;;;1.60;;
1382;SDS011;685;47.196;11.880;2023-02-15T02:37:28;2.50;;;1.80;;
1382;SDS011;685;47.196;11.880;2023-02-15T02:40:01;2.60;;;2.00;;
1382;SDS011;685;47.196;11.880;2023-02-15T02:42:38;3.63;;;2.23;;
1382;SDS011;685;47.196;11.880;2023-02-15T02:45:08;2.17;;;1.93;;
1382;SDS011;685;47.196;11.880;2023-02-15T02:47:38;2.37;;;1.63;;
1382;SDS011;685;47.196;11.880;2023-02-15T02:50:12;1.40;;;1.13;;
1382;SDS011;685;47.196;11.880;2023-02-15T02:52:41;1.27;;;1.00;;
1382;SDS011;685;47.196;11.880;2023-02-15T02:55:11;1.63;;;1.20;;
1382;SDS011;685;47.196;11.880;2023-02-15T02:57:44;1.20;;;1.10;;
1382;SDS011;685;47.196;11.880;2023-02-15T03:00:16;1.50;;;0.73;;
1382;SDS011;685;47.196;11.880;2023-02-15T03:02:45;0.90;;;0.80;;
1382;SDS011;685;47.196;11.880;2023-02-15T03:05:18;1.30;;;0.80;;
1382;SDS011;685;47.196;11.880;2023-02-15T03:07:49;1.53;;;0.90;;
1382;SDS011;685;47.196;11.880;2023-02-15T03:10:18;0.90;;;0.70;;
1382;SDS011;685;47.196;11.880;2023-02-15T03:12:48;1.20;;;0.90;;
1382;SDS011;685;47.196;11.880;2023-02-15T03:15:20;0.97;;;0.77;;
1382;SDS011;685;47.196;11.880;2023-02-15T03:17:51;2.20;;;0.73;;
1382;SDS011;685;47.196;11.880;2023-02-15T03:20:24;1.03;;;0.90;;
1382;SDS011;685;47.196;11.880;2023-02-15T03:22:56;1.20;;;0.80;;
1382;SDS011;685;47.196;11.880;2023-02-15T03:25:26;1.90;;;1.10;;
1382;SDS011;685;47.196;11.880;2023-02-15T03:27:58;1.00;;;0.80;;
1382;SDS011;685;47.196;11.880;2023-02-15T03:30:28;1.00;;;0.70;;
1382;SDS011;685;47.196;11.880;2023-02-15T03:32:57;1.20;;;0.97;;
1382;SDS011;685;47.196;11.880;2023-02-15T03:35:30;2.13;;;0.93;;
1382;SDS011;685;47.196;11.880;2023-02-15T03:38:02;1.53;;;0.83;;
1382;SDS011;685;47.196;11.880;2023-02-15T03:40:33;1.93;;;0.90;;
1382;SDS011;685;47.196;11.880;2023-02-15T03:43:21;1.00;;;0.90;;
1382;SDS011;685;47.196;11.880;2023-02-15T03:45:56;1.30;;;0.90;;
1382;SDS011;685;47.196;11.880;2023-02-15T03:48:33;1.00;;;0.70;;
1382;SDS011;685;47.196;11.880;2023-02-15T03:51:07;1.00;;;0.80;;
1382;SDS011;685;47.196;11.880;2023-02-15T03:53:54;1.10;;;0.83;;
1382;SDS011;685;47.196;11.880;2023-02-15T03:56:23;1.57;;;1.20;;
1382;SDS011;685;47.196;11.880;2023-02-15T03:58:51;3.93;;;2.40;;
1382;SDS011;685;47.196;11.880;2023-02-15T04:01:36;3.20;;;2.47;;
1382;SDS011;685;47.196;11.880;2023-02-15T04:04:25;2.50;;;2.30;;
1382;SDS011;685;47.196;11.880;2023-02-15T04:06:58;2.03;;;1.67;;
1382;SDS011;685;47.196;11.880;2023-02-15T04:09:25;1.50;;;1.23;;
1382;SDS011;685;47.196;11.880;2023-02-15T04:12:09;2.23;;;1.37;;
1382;SDS011;685;47.196;11.880;2023-02-15T04:14:36;1.63;;;1.10;;
1382;SDS011;685;47.196;11.880;2023-02-15T04:17:21;2.57;;;1.30;;
1382;SDS011;685;47.196;11.880;2023-02-15T04:19:48;1.60;;;1.20;;
1382;SDS011;685;47.196;11.880;2023-02-15T04:22:34;1.80;;;1.40;;
1382;SDS011;685;47.196;11.880;2023-02-15T04:25:18;1.63;;;0.90;;
1382;SDS011;685;47.196;11.880;2023-02-15T04:27:47;1.20;;;0.70;;
1382;SDS011;685;47.196;11.880;2023-02-15T04:30:16;1.87;;;1.20;;
1382;SDS011;685;47.196;11.880;2023-02-15T04:32:45;1.03;;;0.83;;
1382;SDS011;685;47.196;11.880;2023-02-15T04:35:12;1.70;;;0.93;;
1382;SDS011;685;47.196;11.880;2023-02-15T04:37:41;1.30;;;1.20;;
1382;SDS011;685;47.196;11.880;2023-02-15T04:40:10;1.03;;;0.80;;
1382;SDS011;685;47.196;11.880;2023-02-15T04:42:38;2.70;;;1.10;;
1382;SDS011;685;47.196;11.880;2023-02-15T04:45:05;1.10;;;0.80;;
1382;SDS011;685;47.196;11.880;2023-02-15T04:47:32;2.13;;;1.37;;
1382;SDS011;685;47.196;11.880;2023-02-15T04:50:01;1.80;;;1.20;;
1382;SDS011;685;47.196;11.880;2023-02-15T04:52:28;1.50;;;1.10;;
1382;SDS011;685;47.196;11.880;2023-02-15T04:54:56;2.03;;;1.10;;
1382;SDS011;685;47.196;11.880;2023-02-15T04:57:23;2.10;;;1.30;;
1382;SDS011;685;47.196;11.880;2023-02-15T04:59:50;4.63;;;1.17;;
1382;SDS011;685;47.196;11.880;2023-02-15T05:02:16;1.30;;;1.10;;
1382;SDS011;685;47.196;11.880;2023-02-15T05:04:43;1.43;;;1.00;;
1382;SDS011;685;47.196;11.880;2023-02-15T05:07:10;1.90;;;1.37;;
1382;SDS011;685;47.196;11.880;2023-02-15T05:09:37;2.27;;;1.50;;
1382;SDS011;685;47.196;11.880;2023-02-15T05:12:05;1.40;;;1.10;;
1382;SDS011;685;47.196;11.880;2023-02-15T05:14:32;1.43;;;1.20;;
1382;SDS011;685;47.196;11.880;2023-02-15T05:16:59;1.40;;;1.30;;
1382;SDS011;685;47.196;11.880;2023-02-15T05:19:28;1.20;;;1.10;;
1382;SDS011;685;47.196;11.880;2023-02-15T05:21:55;1.40;;;1.30;;
1382;SDS011;685;47.196;11.880;2023-02-15T05:24:22;1.30;;;1.10;;
1382;SDS011;685;47.196;11.880;2023-02-15T05:27:16;1.20;;;1.10;;
1382;SDS011;685;47.196;11.880;2023-02-15T05:30:00;2.63;;;1.37;;
1382;SDS011;685;47.196;11.880;2023-02-15T05:32:27;2.40;;;0.90;;
1382;SDS011;685;47.196;11.880;2023-02-15T05:34:54;2.03;;;1.40;;
1382;SDS011;685;47.196;11.880;2023-02-15T05:37:21;2.33;;;2.13;;
1382;SDS011;685;47.196;11.880;2023-02-15T05:39:48;2.03;;;1.80;;
1382;SDS011;685;47.196;11.880;2023-02-15T05:42:16;2.87;;;1.60;;
1382;SDS011;685;47.196;11.880;2023-02-15T05:44:43;2.13;;;1.53;;
1382;SDS011;685;47.196;11.880;2023-02-15T05:47:09;2.00;;;1.50;;
1382;SDS011;685;47.196;11.880;2023-02-15T05:49:36;2.40;;;2.20;;
1382;SDS011;685;47.196;11.880;2023-02-15T05:52:03;2.10;;;1.80;;
1382;SDS011;685;47.196;11.880;2023-02-15T05:54:30;2.03;;;1.63;;
1382;SDS011;685;47.196;11.880;2023-02-15T05:56:57;2.63;;;1.90;;
1382;SDS011;685;47.196;11.880;2023-02-15T05:59:25;2.23;;;2.00;;
1382;SDS011;685;47.196;11.880;2023-02-15T06:01:52;2.80;;;2.50;;
1382;SDS011;685;47.196;11.880;2023-02-15T06:04:19;3.30;;;3.00;;
1382;SDS011;685;47.196;11.880;2023-02-15T06:06:46;2.07;;;1.60;;
1382;SDS011;685;47.196;11.880;2023-02-15T06:09:13;1.77;;;1.40;;
1382;SDS011;685;47.196;11.880;2023-02-15T06:11:43;3.13;;;1.50;;
1382;SDS011;685;47.196;11.880;2023-02-15T06:14:10;3.10;;;2.37;;
1382;SDS011;685;47.196;11.880;2023-02-15T06:16:38;3.40;;;2.67;;
1382;SDS011;685;47.196;11.880;2023-02-15T06:19:05;2.23;;;2.03;;
1382;SDS011;685;47.196;11.880;2023-02-15T06:21:32;3.07;;;2.70;;
1382;SDS011;685;47.196;11.880;2023-02-15T06:23:59;8.70;;;5.93;;
1382;SDS011;685;47.196;11.880;2023-02-15T06:26:25;4.67;;;2.53;;
1382;SDS011;685;47.196;11.880;2023-02-15T06:28:52;9.00;;;4.97;;
1382;SDS011;685;47.196;11.880;2023-02-15T06:31:19;2.80;;;1.87;;
1382;SDS011;685;47.196;11.880;2023-02-15T06:33:47;3.27;;;2.63;;
1382;SDS011;685;47.196;11.880;2023-02-15T06:36:14;7.80;;;4.93;;
1382;SDS011;685;47.196;11.880;2023-02-15T06:38:41;15.90;;;10.17;;
1382;SDS011;685;47.196;11.880;2023-02-15T06:41:08;11.93;;;7.83;;
1382;SDS011;685;47.196;11.880;2023-02-15T06:43:35;11.93;;;6.83;;
1382;SDS011;685;47.196;11.880;2023-02-15T06:46:02;5.90;;;4.00;;
1382;SDS011;685;47.196;11.880;2023-02-15T06:48:28;4.10;;;2.60;;
1382;SDS011;685;47.196;11.880;2023-02-15T06:50:57;4.00;;;3.20;;
1382;SDS011;685;47.196;11.880;2023-02-15T06:53:24;4.13;;;2.97;;
1382;SDS011;685;47.196;11.880;2023-02-15T06:55:50;6.80;;;5.83;;
1382;SDS011;685;47.196;11.880;2023-02-15T06:58:17;5.97;;;4.73;;
1382;SDS011;685;47.196;11.880;2023-02-15T07:00:44;10.00;;;5.40;;
1382;SDS011;685;47.196;11.880;2023-02-15T07:03:12;4.63;;;4.20;;
1382;SDS011;685;47.196;11.880;2023-02-15T07:05:40;3.80;;;3.50;;
1382;SDS011;685;47.196;11.880;2023-02-15T07:08:10;4.73;;;4.10;;
1382;SDS011;685;47.196;11.880;2023-02-15T07:10:36;4.83;;;4.10;;
1382;SDS011;685;47.196;11.880;2023-02-15T07:13:03;5.63;;;4.50;;
1382;SDS011;685;47.196;11.880;2023-02-15T07:15:29;7.60;;;4.40;;
1382;SDS011;685;47.196;11.880;2023-02-15T07:17:56;5.77;;;4.57;;
1382;SDS011;685;47.196;11.880;2023-02-15T07:20:24;6.77;;;4.97;;
1382;SDS011;685;47.196;11.880;2023-02-15T07:22:51;5.47;;;4.50;;
1382;SDS011;685;47.196;11.880;2023-02-15T07:25:19;4.43;;;3.70;;
1382;SDS011;685;47.196;11.880;2023-02-15T07:27:46;3.70;;;3.20;;
1382;SDS011;685;47.196;11.880;2023-02-15T07:30:14;4.40;;;4.00;;
1382;SDS011;685;47.196;11.880;2023-02-15T07:32:42;7.27;;;6.57;;
1382;SDS011;685;47.196;11.880;2023-02-15T07:35:23;5.80;;;4.30;;
1382;SDS011;685;47.196;11.880;2023-02-15T07:37:50;6.30;;;5.30;;
1382;SDS011;685;47.196;11.880;2023-02-15T07:40:19;9.00;;;6.73;;
1382;SDS011;685;47.196;11.880;2023-02-15T07:42:48;7.03;;;6.03;;
1382;SDS011;685;47.196;11.880;2023-02-15T07:45:16;9.70;;;8.80;;
1382;SDS011;685;47.196;11.880;2023-02-15T07:47:43;6.10;;;5.60;;
1382;SDS011;685;47.196;11.880;2023-02-15T07:50:10;5.93;;;4.43;;
1382;SDS011;685;47.196;11.880;2023-02-15T07:52:37;6.67;;;5.30;;
1382;SDS011;685;47.196;11.880;2023-02-15T07:55:04;9.40;;;7.37;;
1382;SDS011;685;47.196;11.880;2023-02-15T07:57:32;17.10;;;13.10;;
1382;SDS011;685;47.196;11.880;2023-02-15T07:59:59;9.97;;;7.30;;
1382;SDS011;685;47.196;11.880;2023-02-15T08:02:26;10.50;;;7.77;;
1382;SDS011;685;47.196;11.880;2023-02-15T08:04:55;8.23;;;6.90;;
1382;SDS011;685;47.196;11.880;2023-02-15T08:07:22;15.77;;;8.83;;
1382;SDS011;685;47.196;11.880;2023-02-15T08:09:48;16.43;;;9.70;;
1382;SDS011;685;47.196;11.880;2023-02-15T08:12:15;17.03;;;9.70;;
1382;SDS011;685;47.196;11.880;2023-02-15T08:14:43;13.20;;;7.90;;
1382;SDS011;685;47.196;11.880;2023-02-15T08:17:10;11.30;;;6.20;;
1382;SDS011;685;47.196;11.880;2023-02-15T08:19:37;7.30;;;4.50;;
1382;SDS011;685;47.196;11.880;2023-02-15T08:22:05;6.60;;;5.10;;
1382;SDS011;685;47.196;11.880;2023-02-15T08:24:35;6.23;;;3.60;;
1382;SDS011;685;47.196;11.880;2023-02-15T08:27:03;3.70;;;3.37;;
1382;SDS011;685;47.196;11.880;2023-02-15T08:29:30;4.47;;;3.57;;
1382;SDS011;685;47.196;11.880;2023-02-15T08:32:00;3.47;;;2.97;;
1382;SDS011;685;47.196;11.880;2023-02-15T08:34:29;5.20;;;3.40;;
1382;SDS011;685;47.196;11.880;2023-02-15T08:36:57;3.50;;;3.00;;
1382;SDS011;685;47.196;11.880;2023-02-15T08:39:24;4.57;;;3.50;;
1382;SDS011;685;47.196;11.880;2023-02-15T08:41:51;4.10;;;3.23;;
1382;SDS011;685;47.196;11.880;2023-02-15T08:44:18;11.20;;;6.33;;
1382;SDS011;685;47.196;11.880;2023-02-15T08:46:47;11.93;;;8.50;;
1382;SDS011;685;47.196;11.880;2023-02-15T08:49:16;9.10;;;7.30;;
1382;SDS011;685;47.196;11.880;2023-02-15T08:51:45;5.90;;;4.73;;
1382;SDS011;685;47.196;11.880;2023-02-15T08:54:13;3.00;;;2.60;;
1382;SDS011;685;47.196;11.880;2023-02-15T08:56:42;2.17;;;1.97;;
1382;SDS011;685;47.196;11.880;2023-02-15T08:59:11;2.27;;;1.93;;
1382;SDS011;685;47.196;11.880;2023-02-15T09:01:40;1.30;;;1.20;;
1382;SDS011;685;47.196;11.880;2023-02-15T09:04:07;1.40;;;1.30;;
1382;SDS011;685;47.196;11.880;2023-02-15T09:06:36;1.30;;;1.03;;
1382;SDS011;685;47.196;11.880;2023-02-15T09:09:04;1.87;;;1.27;;
1382;SDS011;685;47.196;11.880;2023-02-15T09:11:33;2.77;;;1.30;;
1382;SDS011;685;47.196;11.880;2023-02-15T09:14:02;5.53;;;1.67;;
1382;SDS011;685;47.196;11.880;2023-02-15T09:16:31;2.57;;;1.50;;
1382;SDS011;685;47.196;11.880;2023-02-15T09:18:59;3.67;;;2.07;;
1382;SDS011;685;47.196;11.880;2023-02-15T09:21:28;4.70;;;2.63;;
1382;SDS011;685;47.196;11.880;2023-02-15T09:23:57;3.10;;;2.80;;
1382;SDS011;685;47.196;11.880;2023-02-15T09:26:26;3.70;;;2.50;;
1382;SDS011;685;47.196;11.880;2023-02-15T09:28:54;3.23;;;1.87;;
1382;SDS011;685;47.196;11.880;2023-02-15T09:31:23;4.67;;;2.03;;
1382;SDS011;685;47.196;11.880;2023-02-15T09:33:51;3.30;;;2.17;;
1382;SDS011;685;47.196;11.880;2023-02-15T09:36:19;3.80;;;1.93;;
1382;SDS011;685;47.196;11.880;2023-02-15T09:38:50;2.53;;;1.90;;
1382;SDS011;685;47.196;11.880;2023-02-15T09:41:27;2.50;;;1.50;;
1382;SDS011;685;47.196;11.880;2023-02-15T09:44:08;1.93;;;1.10;;
1382;SDS011;685;47.196;11.880;2023-02-15T09:46:44;1.63;;;0.90;;
1382;SDS011;685;47.196;11.880;2023-02-15T09:49:26;1.10;;;0.80;;
1382;SDS011;685;47.196;11.880;2023-02-15T09:52:05;2.93;;;1.27;;
1382;SDS011;685;47.196;11.880;2023-02-15T09:54:49;1.13;;;0.80;;
1382;SDS011;685;47.196;11.880;2023-02-15T09:57:28;1.67;;;1.00;;
1382;SDS011;685;47.196;11.880;2023-02-15T10:00:06;1.70;;;0.90;;
1382;SDS011;685;47.196;11.880;2023-02-15T10:02:52;1.20;;;0.93;;
1382;SDS011;685;47.196;11.880;2023-02-15T10:05:32;1.00;;;0.73;;
1382;SDS011;685;47.196;11.880;2023-02-15T10:11:02;1.47;;;0.77;;
1382;SDS011;685;47.196;11.880;2023-02-15T10:13:57;1.00;;;0.90;;
1382;SDS011;685;47.196;11.880;2023-02-15T10:16:35;1.40;;;0.70;;
1382;SDS011;685;47.196;11.880;2023-02-15T10:19:10;1.37;;;0.80;;
1382;SDS011;685;47.196;11.880;2023-02-15T10:21:48;1.23;;;0.90;;
1382;SDS011;685;47.196;11.880;2023-02-15T10:24:27;1.20;;;0.70;;
1382;SDS011;685;47.196;11.880;2023-02-15T10:27:18;3.30;;;0.90;;
1382;SDS011;685;47.196;11.880;2023-02-15T10:29:48;1.17;;;0.80;;
1382;SDS011;685;47.196;11.880;2023-02-15T10:32:27;1.50;;;1.20;;
1382;SDS011;685;47.196;11.880;2023-02-15T10:35:00;6.93;;;4.43;;
1382;SDS011;685;47.196;11.880;2023-02-15T10:37:42;13.30;;;9.17;;
1382;SDS011;685;47.196;11.880;2023-02-15T10:40:20;10.40;;;7.77;;
1382;SDS011;685;47.196;11.880;2023-02-15T10:42:57;5.50;;;3.80;;
1382;SDS011;685;47.196;11.880;2023-02-15T10:45:43;3.30;;;2.90;;
1382;SDS011;685;47.196;11.880;2023-02-15T10:51:18;1.60;;;1.27;;
1382;SDS011;685;47.196;11.880;2023-02-15T10:53:55;1.83;;;1.33;;
1382;SDS011;685;47.196;11.880;2023-02-15T10:56:35;3.87;;;1.50;;
1382;SDS011;685;47.196;11.880;2023-02-15T10:59:15;1.70;;;1.30;;
1382;SDS011;685;47.196;11.880;2023-02-15T11:01:51;1.90;;;1.03;;
1382;SDS011;685;47.196;11.880;2023-02-15T11:04:32;1.87;;;1.60;;
1382;SDS011;685;47.196;11.880;2023-02-15T11:07:08;1.90;;;1.37;;
1382;SDS011;685;47.196;11.880;2023-02-15T11:09:43;2.30;;;1.67;;
1382;SDS011;685;47.196;11.880;2023-02-15T11:12:14;1.80;;;1.33;;
1382;SDS011;685;47.196;11.880;2023-02-15T11:14:46;3.43;;;1.80;;
1382;SDS011;685;47.196;11.880;2023-02-15T11:17:21;3.30;;;1.83;;
1382;SDS011;685;47.196;11.880;2023-02-15T11:19:55;2.10;;;1.90;;
1382;SDS011;685;47.196;11.880;2023-02-15T11:22:27;2.33;;;2.13;;
1382;SDS011;685;47.196;11.880;2023-02-15T11:24:56;2.43;;;1.30;;
1382;SDS011;685;47.196;11.880;2023-02-15T11:27:26;3.13;;;1.70;;
1382;SDS011;685;47.196;11.880;2023-02-15T11:29:58;3.60;;;1.60;;
1382;SDS011;685;47.196;11.880;2023-02-15T11:32:30;3.10;;;2.10;;
1382;SDS011;685;47.196;11.880;2023-02-15T11:35:01;1.50;;;1.30;;
1382;SDS011;685;47.196;11.880;2023-02-15T11:37:33;1.53;;;1.43;;
1382;SDS011;685;47.196;11.880;2023-02-15T11:40:19;1.73;;;1.40;;
1382;SDS011;685;47.196;11.880;2023-02-15T11:42:49;1.97;;;1.70;;
1382;SDS011;685;47.196;11.880;2023-02-15T11:45:21;1.77;;;1.30;;
1382;SDS011;685;47.196;11.880;2023-02-15T11:47:54;3.57;;;1.60;;
1382;SDS011;685;47.196;11.880;2023-02-15T11:50:23;2.40;;;1.57;;
1382;SDS011;685;47.196;11.880;2023-02-15T11:52:51;1.20;;;1.10;;
1382;SDS011;685;47.196;11.880;2023-02-15T11:55:22;1.73;;;1.63;;
1382;SDS011;685;47.196;11.880;2023-02-15T11:57:51;1.70;;;1.60;;
1382;SDS011;685;47.196;11.880;2023-02-15T12:00:24;2.27;;;1.60;;
1382;SDS011;685;47.196;11.880;2023-02-15T12:03:02;1.97;;;1.83;;
1382;SDS011;685;47.196;11.880;2023-02-15T12:05:36;2.23;;;2.00;;
1382;SDS011;685;47.196;11.880;2023-02-15T12:08:10;1.90;;;1.63;;
1382;SDS011;685;47.196;11.880;2023-02-15T12:10:42;2.40;;;1.70;;
1382;SDS011;685;47.196;11.880;2023-02-15T12:13:17;2.30;;;1.70;;
1382;SDS011;685;47.196;11.880;2023-02-15T12:15:45;2.57;;;1.90;;
1382;SDS011;685;47.196;11.880;2023-02-15T12:18:20;2.30;;;2.00;;
1382;SDS011;685;47.196;11.880;2023-02-15T12:20:57;2.50;;;2.10;;
1382;SDS011;685;47.196;11.880;2023-02-15T12:23:25;2.70;;;1.70;;
1382;SDS011;685;47.196;11.880;2023-02-15T12:25:55;2.30;;;1.80;;
1382;SDS011;685;47.196;11.880;2023-02-15T12:28:25;2.90;;;1.50;;
1382;SDS011;685;47.196;11.880;2023-02-15T12:30:57;1.93;;;1.30;;
1382;SDS011;685;47.196;11.880;2023-02-15T12:33:29;3.10;;;1.47;;
1382;SDS011;685;47.196;11.880;2023-02-15T12:35:59;1.60;;;1.40;;
1382;SDS011;685;47.196;11.880;2023-02-15T12:38:29;1.50;;;1.10;;
1382;SDS011;685;47.196;11.880;2023-02-15T12:40:57;2.70;;;1.20;;
1382;SDS011;685;47.196;11.880;2023-02-15T12:43:26;1.50;;;1.27;;
1382;SDS011;685;47.196;11.880;2023-02-15T12:45:58;2.30;;;1.20;;
1382;SDS011;685;47.196;11.880;2023-02-15T12:48:46;1.63;;;1.53;;
1382;SDS011;685;47.196;11.880;2023-02-15T12:51:17;2.00;;;1.40;;
1382;SDS011;685;47.196;11.880;2023-02-15T12:53:44;2.10;;;1.43;;
1382;SDS011;685;47.196;11.880;2023-02-15T12:56:11;2.73;;;1.10;;
1382;SDS011;685;47.196;11.880;2023-02-15T12:58:38;2.10;;;1.40;;
1382;SDS011;685;47.196;11.880;2023-02-15T13:01:10;1.70;;;1.40;;
1382;SDS011;685;47.196;11.880;2023-02-15T13:03:39;1.73;;;1.40;;
1382;SDS011;685;47.196;11.880;2023-02-15T13:06:25;2.17;;;1.50;;
1382;SDS011;685;47.196;11.880;2023-02-15T13:08:53;2.20;;;1.70;;
1382;SDS011;685;47.196;11.880;2023-02-15T13:11:23;2.20;;;1.60;;
1382;SDS011;685;47.196;11.880;2023-02-15T13:13:53;3.03;;;1.57;;
1382;SDS011;685;47.196;11.880;2023-02-15T13:16:24;2.20;;;1.67;;
1382;SDS011;685;47.196;11.880;2023-02-15T13:18:57;1.93;;;1.73;;
1382;SDS011;685;47.196;11.880;2023-02-15T13:21:30;2.87;;;1.90;;
1382;SDS011;685;47.196;11.880;2023-02-15T13:24:01;2.70;;;1.93;;
1382;SDS011;685;47.196;11.880;2023-02-15T13:26:31;5.70;;;2.10;;
1382;SDS011;685;47.196;11.880;2023-02-15T13:29:01;4.07;;;2.60;;
1382;SDS011;685;47.196;11.880;2023-02-15T13:31:33;3.50;;;2.53;;
1382;SDS011;685;47.196;11.880;2023-02-15T13:34:03;2.93;;;2.63;;
1382;SDS011;685;47.196;11.880;2023-02-15T13:36:39;4.23;;;2.90;;
1382;SDS011;685;47.196;11.880;2023-02-15T13:39:18;5.10;;;2.57;;
1382;SDS011;685;47.196;11.880;2023-02-15T13:41:52;1.90;;;1.70;;
1382;SDS011;685;47.196;11.880;2023-02-15T13:47:21;2.63;;;2.07;;
1382;SDS011;685;47.196;11.880;2023-02-15T13:49:59;1.80;;;1.30;;
1382;SDS011;685;47.196;11.880;2023-02-15T13:52:38;3.63;;;1.83;;
1382;SDS011;685;47.196;11.880;2023-02-15T13:58:10;2.57;;;1.73;;
1382;SDS011;685;47.196;11.880;2023-02-15T14:00:47;3.03;;;1.73;;
1382;SDS011;685;47.196;11.880;2023-02-15T14:03:28;3.83;;;1.80;;
1382;SDS011;685;47.196;11.880;2023-02-15T14:06:20;4.53;;;1.70;;
1382;SDS011;685;47.196;11.880;2023-02-15T14:09:05;2.30;;;1.30;;
1382;SDS011;685;47.196;11.880;2023-02-15T14:11:39;5.33;;;3.30;;
1382;SDS011;685;47.196;11.880;2023-02-15T14:17:14;4.70;;;1.50;;
1382;SDS011;685;47.196;11.880;2023-02-15T14:19:50;2.43;;;1.47;;
1382;SDS011;685;47.196;11.880;2023-02-15T14:22:24;4.37;;;1.97;;
1382;SDS011;685;47.196;11.880;2023-02-15T14:24:59;4.00;;;1.97;;
1382;SDS011;685;47.196;11.880;2023-02-15T14:27:42;2.40;;;1.60;;
1382;SDS011;685;47.196;11.880;2023-02-15T14:30:18;3.67;;;1.70;;
1382;SDS011;685;47.196;11.880;2023-02-15T14:32:47;2.27;;;1.27;;
1382;SDS011;685;47.196;11.880;2023-02-15T14:35:19;2.80;;;1.50;;
1382;SDS011;685;47.196;11.880;2023-02-15T14:37:51;1.90;;;1.47;;
1382;SDS011;685;47.196;11.880;2023-02-15T14:40:29;5.17;;;1.60;;
1382;SDS011;685;47.196;11.880;2023-02-15T14:43:19;2.77;;;2.13;;
1382;SDS011;685;47.196;11.880;2023-02-15T14:45:54;1.90;;;1.50;;
1382;SDS011;685;47.196;11.880;2023-02-15T14:48:25;2.50;;;2.00;;
1382;SDS011;685;47.196;11.880;2023-02-15T14:50:57;3.27;;;2.20;;
1382;SDS011;685;47.196;11.880;2023-02-15T14:53:35;3.33;;;2.23;;
1382;SDS011;685;47.196;11.880;2023-02-15T14:58:54;3.27;;;1.50;;
1382;SDS011;685;47.196;11.880;2023-02-15T15:01:27;3.40;;;1.80;;
1382;SDS011;685;47.196;11.880;2023-02-15T15:03:57;4.07;;;1.87;;
1382;SDS011;685;47.196;11.880;2023-02-15T15:06:27;2.00;;;1.43;;
1382;SDS011;685;47.196;11.880;2023-02-15T15:08:59;2.40;;;1.50;;
1382;SDS011;685;47.196;11.880;2023-02-15T15:11:38;2.47;;;1.90;;
1382;SDS011;685;47.196;11.880;2023-02-15T15:17:06;3.17;;;1.80;;
1382;SDS011;685;47.196;11.880;2023-02-15T15:22:42;1.70;;;1.43;;
1382;SDS011;685;47.196;11.880;2023-02-15T15:25:11;2.03;;;1.70;;
1382;SDS011;685;47.196;11.880;2023-02-15T15:27:53;1.87;;;1.67;;
1382;SDS011;685;47.196;11.880;2023-02-15T15:36:56;1.80;;;1.60;;
1382;SDS011;685;47.196;11.880;2023-02-15T15:43:00;1.60;;;1.23;;
1382;SDS011;685;47.196;11.880;2023-02-15T15:45:59;2.37;;;1.40;;
1382;SDS011;685;47.196;11.880;2023-02-15T15:48:36;1.63;;;1.47;;
1382;SDS011;685;47.196;11.880;2023-02-15T15:51:05;1.40;;;0.90;;
1382;SDS011;685;47.196;11.880;2023-02-15T15:53:38;3.30;;;2.30;;
1382;SDS011;685;47.196;11.880;2023-02-15T15:56:12;2.30;;;1.57;;
1382;SDS011;685;47.196;11.880;2023-02-15T15:58:44;1.80;;;1.57;;
1382;SDS011;685;47.196;11.880;2023-02-15T16:01:15;2.17;;;1.50;;
1382;SDS011;685;47.196;11.880;2023-02-15T16:03:49;4.30;;;1.67;;
1382;SDS011;685;47.196;11.880;2023-02-15T16:06:31;2.43;;;1.30;;
1382;SDS011;685;47.196;11.880;2023-02-15T16:09:09;1.60;;;1.37;;
1382;SDS011;685;47.196;11.880;2023-02-15T16:11:39;1.50;;;1.13;;
1382;SDS011;685;47.196;11.880;2023-02-15T16:14:12;1.77;;;1.27;;
1382;SDS011;685;47.196;11.880;2023-02-15T16:16:43;7.60;;;4.57;;
1382;SDS011;685;47.196;11.880;2023-02-15T16:19:17;12.00;;;9.33;;
1382;SDS011;685;47.196;11.880;2023-02-15T16:21:46;13.07;;;9.85;;
1382;SDS011;685;47.196;11.880;2023-02-15T16:24:26;8.37;;;6.40;;